sensor_id;sensor_type;location;lat;lon;timestamp;P1;durP1;ratioP1;P2;durP2;ratioP2
2053;SDS011;1032;52.542;13.440;2023-04-25T00:02:23;4.30;;;3.60;;
2053;SDS011;1032;52.542;13.440;2023-04-25T00:04:50;3.90;;;3.10;;
2053;SDS011;1032;52.542;13.440;2023-04-25T00:07:17;6.13;;;3.90;;
2053;SDS011;1032;52.542;13.440;2023-04-25T00:09:44;5.87;;;3.57;;
2053;SDS011;1032;52.542;13.440;2023-04-25T00:12:12;6.10;;;3.60;;
2053;SDS011;1032;52.542;13.440;2023-04-25T00:14:39;3.50;;;2.57;;
2053;SDS011;1032;52.542;13.440;2023-04-25T00:17:05;6.47;;;3.57;;
2053;SDS011;1032;52.542;13.440;2023-04-25T00:19:32;6.07;;;3.23;;
2053;SDS011;1032;52.542;13.440;2023-04-25T00:21:59;3.17;;;2.53;;
2053;SDS011;1032;52.542;13.440;2023-04-25T00:24:26;6.30;;;2.73;;
2053;SDS011;1032;52.542;13.440;2023-04-25T00:26:53;8.50;;;2.70;;
2053;SDS011;1032;52.542;13.440;2023-04-25T00:29:21;5.20;;;3.37;;
2053;SDS011;1032;52.542;13.440;2023-04-25T00:31:47;5.10;;;3.60;;
2053;SDS011;1032;52.542;13.440;2023-04-25T00:34:14;4.57;;;2.90;;
2053;SDS011;1032;52.542;13.440;2023-04-25T00:36:41;5.60;;;3.13;;
2053;SDS011;1032;52.542;13.440;2023-04-25T00:39:08;5.80;;;2.80;;
2053;SDS011;1032;52.542;13.440;2023-04-25T00:41:34;4.17;;;2.43;;
2053;SDS011;1032;52.542;13.440;2023-04-25T00:44:03;7.83;;;3.27;;
2053;SDS011;1032;52.542;13.440;2023-04-25T00:46:33;6.80;;;3.23;;
2053;SDS011;1032;52.542;13.440;2023-04-25T00:49:01;6.03;;;3.20;;
2053;SDS011;1032;52.542;13.440;2023-04-25T00:51:27;4.10;;;2.53;;
2053;SDS011;1032;52.542;13.440;2023-04-25T00:53:55;6.60;;;2.90;;
2053;SDS011;1032;52.542;13.440;2023-04-25T00:56:22;7.30;;;3.00;;
2053;SDS011;1032;52.542;13.440;2023-04-25T00:58:49;3.90;;;2.60;;
2053;SDS011;1032;52.542;13.440;2023-04-25T01:01:18;7.83;;;3.30;;
2053;SDS011;1032;52.542;13.440;2023-04-25T01:03:46;5.40;;;2.87;;
2053;SDS011;1032;52.542;13.440;2023-04-25T01:06:15;6.67;;;2.90;;
2053;SDS011;1032;52.542;13.440;2023-04-25T01:08:42;5.80;;;3.50;;
2053;SDS011;1032;52.542;13.440;2023-04-25T01:11:09;3.77;;;2.73;;
2053;SDS011;1032;52.542;13.440;2023-04-25T01:13:35;6.93;;;3.13;;
2053;SDS011;1032;52.542;13.440;2023-04-25T01:16:03;5.60;;;3.70;;
2053;SDS011;1032;52.542;13.440;2023-04-25T01:18:30;9.30;;;3.90;;
2053;SDS011;1032;52.542;13.440;2023-04-25T01:21:02;6.20;;;2.97;;
2053;SDS011;1032;52.542;13.440;2023-04-25T01:23:33;5.30;;;3.00;;
2053;SDS011;1032;52.542;13.440;2023-04-25T01:26:00;9.10;;;3.53;;
2053;SDS011;1032;52.542;13.440;2023-04-25T01:28:27;5.40;;;3.37;;
2053;SDS011;1032;52.542;13.440;2023-04-25T01:30:54;6.63;;;3.70;;
2053;SDS011;1032;52.542;13.440;2023-04-25T01:33:22;7.60;;;3.40;;
2053;SDS011;1032;52.542;13.440;2023-04-25T01:35:48;11.27;;;4.00;;
2053;SDS011;1032;52.542;13.440;2023-04-25T01:38:20;8.13;;;3.40;;
2053;SDS011;1032;52.542;13.440;2023-04-25T01:40:46;6.00;;;3.23;;
2053;SDS011;1032;52.542;13.440;2023-04-25T01:43:18;7.87;;;3.03;;
2053;SDS011;1032;52.542;13.440;2023-04-25T01:45:44;5.00;;;3.30;;
2053;SDS011;1032;52.542;13.440;2023-04-25T01:48:12;9.17;;;3.43;;
2053;SDS011;1032;52.542;13.440;2023-04-25T01:50:42;9.53;;;3.83;;
2053;SDS011;1032;52.542;13.440;2023-04-25T01:53:10;12.30;;;4.27;;
2053;SDS011;1032;52.542;13.440;2023-04-25T01:55:41;7.83;;;4.10;;
2053;SDS011;1032;52.542;13.440;2023-04-25T01:58:11;7.33;;;3.60;;
2053;SDS011;1032;52.542;13.440;2023-04-25T02:00:57;4.63;;;3.20;;
2053;SDS011;1032;52.542;13.440;2023-04-25T02:03:28;5.87;;;3.73;;
2053;SDS011;1032;52.542;13.440;2023-04-25T02:05:56;4.30;;;3.37;;
2053;SDS011;1032;52.542;13.440;2023-04-25T02:08:23;7.30;;;3.40;;
2053;SDS011;1032;52.542;13.440;2023-04-25T02:10:54;9.10;;;3.93;;
2053;SDS011;1032;52.542;13.440;2023-04-25T02:13:22;8.57;;;4.00;;
2053;SDS011;1032;52.542;13.440;2023-04-25T02:15:57;6.60;;;3.73;;
2053;SDS011;1032;52.542;13.440;2023-04-25T02:18:23;10.00;;;3.90;;
2053;SDS011;1032;52.542;13.440;2023-04-25T02:20:51;7.90;;;4.07;;
2053;SDS011;1032;52.542;13.440;2023-04-25T02:23:19;6.87;;;3.47;;
2053;SDS011;1032;52.542;13.440;2023-04-25T02:25:46;6.33;;;4.53;;
2053;SDS011;1032;52.542;13.440;2023-04-25T02:28:14;7.87;;;3.90;;
2053;SDS011;1032;52.542;13.440;2023-04-25T02:30:40;6.23;;;3.97;;
2053;SDS011;1032;52.542;13.440;2023-04-25T02:33:07;5.57;;;4.20;;
2053;SDS011;1032;52.542;13.440;2023-04-25T02:35:35;5.93;;;3.80;;
2053;SDS011;1032;52.542;13.440;2023-04-25T02:38:01;8.40;;;4.30;;
2053;SDS011;1032;52.542;13.440;2023-04-25T02:40:28;8.80;;;4.80;;
2053;SDS011;1032;52.542;13.440;2023-04-25T02:42:55;7.23;;;4.30;;
2053;SDS011;1032;52.542;13.440;2023-04-25T02:45:25;7.17;;;4.47;;
2053;SDS011;1032;52.542;13.440;2023-04-25T02:47:52;7.00;;;3.60;;
2053;SDS011;1032;52.542;13.440;2023-04-25T02:50:19;8.57;;;3.40;;
2053;SDS011;1032;52.542;13.440;2023-04-25T02:52:45;6.67;;;4.40;;
2053;SDS011;1032;52.542;13.440;2023-04-25T02:55:20;8.70;;;4.47;;
2053;SDS011;1032;52.542;13.440;2023-04-25T02:57:47;11.20;;;4.13;;
2053;SDS011;1032;52.542;13.440;2023-04-25T03:00:23;10.80;;;5.17;;
2053;SDS011;1032;52.542;13.440;2023-04-25T03:02:51;6.10;;;4.60;;
2053;SDS011;1032;52.542;13.440;2023-04-25T03:05:18;15.33;;;5.27;;
2053;SDS011;1032;52.542;13.440;2023-04-25T03:07:45;6.80;;;4.23;;
2053;SDS011;1032;52.542;13.440;2023-04-25T03:10:12;6.67;;;4.40;;
2053;SDS011;1032;52.542;13.440;2023-04-25T03:12:39;7.30;;;4.50;;
2053;SDS011;1032;52.542;13.440;2023-04-25T03:15:06;8.97;;;4.70;;
2053;SDS011;1032;52.542;13.440;2023-04-25T03:17:33;9.53;;;5.00;;
2053;SDS011;1032;52.542;13.440;2023-04-25T03:20:01;6.23;;;4.40;;
2053;SDS011;1032;52.542;13.440;2023-04-25T03:22:30;6.50;;;4.47;;
2053;SDS011;1032;52.542;13.440;2023-04-25T03:24:56;7.73;;;4.73;;
2053;SDS011;1032;52.542;13.440;2023-04-25T03:27:23;6.80;;;4.40;;
2053;SDS011;1032;52.542;13.440;2023-04-25T03:29:50;7.60;;;4.40;;
2053;SDS011;1032;52.542;13.440;2023-04-25T03:32:17;7.67;;;4.87;;
2053;SDS011;1032;52.542;13.440;2023-04-25T03:34:45;6.17;;;4.43;;
2053;SDS011;1032;52.542;13.440;2023-04-25T03:37:13;8.87;;;5.03;;
2053;SDS011;1032;52.542;13.440;2023-04-25T03:39:39;6.63;;;4.60;;
2053;SDS011;1032;52.542;13.440;2023-04-25T03:42:06;8.53;;;4.53;;
2053;SDS011;1032;52.542;13.440;2023-04-25T03:44:32;8.27;;;4.70;;
2053;SDS011;1032;52.542;13.440;2023-04-25T03:47:00;9.90;;;4.67;;
2053;SDS011;1032;52.542;13.440;2023-04-25T03:49:26;9.13;;;4.87;;
2053;SDS011;1032;52.542;13.440;2023-04-25T03:51:59;6.47;;;4.30;;
2053;SDS011;1032;52.542;13.440;2023-04-25T03:54:30;8.67;;;5.00;;
2053;SDS011;1032;52.542;13.440;2023-04-25T03:57:09;6.77;;;4.20;;
2053;SDS011;1032;52.542;13.440;2023-04-25T03:59:38;6.20;;;3.83;;
2053;SDS011;1032;52.542;13.440;2023-04-25T04:02:06;9.27;;;5.27;;
2053;SDS011;1032;52.542;13.440;2023-04-25T04:04:34;11.30;;;5.00;;
2053;SDS011;1032;52.542;13.440;2023-04-25T04:07:01;7.53;;;5.13;;
2053;SDS011;1032;52.542;13.440;2023-04-25T04:09:33;10.10;;;4.87;;
2053;SDS011;1032;52.542;13.440;2023-04-25T04:12:04;5.80;;;4.40;;
2053;SDS011;1032;52.542;13.440;2023-04-25T04:14:32;9.43;;;4.80;;
2053;SDS011;1032;52.542;13.440;2023-04-25T04:16:59;10.97;;;5.10;;
2053;SDS011;1032;52.542;13.440;2023-04-25T04:19:27;12.07;;;5.37;;
2053;SDS011;1032;52.542;13.440;2023-04-25T04:22:03;9.30;;;4.47;;
2053;SDS011;1032;52.542;13.440;2023-04-25T04:24:30;8.77;;;4.97;;
2053;SDS011;1032;52.542;13.440;2023-04-25T04:27:02;7.47;;;4.23;;
2053;SDS011;1032;52.542;13.440;2023-04-25T04:29:34;9.87;;;5.03;;
2053;SDS011;1032;52.542;13.440;2023-04-25T04:32:15;7.93;;;5.30;;
2053;SDS011;1032;52.542;13.440;2023-04-25T04:34:42;16.60;;;5.60;;
2053;SDS011;1032;52.542;13.440;2023-04-25T04:37:12;8.10;;;4.37;;
2053;SDS011;1032;52.542;13.440;2023-04-25T04:39:40;9.87;;;4.97;;
2053;SDS011;1032;52.542;13.440;2023-04-25T04:42:17;6.70;;;5.10;;
2053;SDS011;1032;52.542;13.440;2023-04-25T04:45:12;7.87;;;5.40;;
2053;SDS011;1032;52.542;13.440;2023-04-25T04:47:56;8.73;;;5.00;;
2053;SDS011;1032;52.542;13.440;2023-04-25T04:50:33;8.80;;;5.00;;
2053;SDS011;1032;52.542;13.440;2023-04-25T04:53:26;7.63;;;4.27;;
2053;SDS011;1032;52.542;13.440;2023-04-25T04:56:17;9.60;;;4.20;;
2053;SDS011;1032;52.542;13.440;2023-04-25T04:59:13;8.93;;;5.00;;
2053;SDS011;1032;52.542;13.440;2023-04-25T05:01:47;8.17;;;4.50;;
2053;SDS011;1032;52.542;13.440;2023-04-25T05:04:20;7.47;;;5.30;;
2053;SDS011;1032;52.542;13.440;2023-04-25T05:07:05;7.13;;;4.53;;
2053;SDS011;1032;52.542;13.440;2023-04-25T05:10:11;13.10;;;5.33;;
2053;SDS011;1032;52.542;13.440;2023-04-25T05:13:01;9.07;;;4.93;;
2053;SDS011;1032;52.542;13.440;2023-04-25T05:15:52;9.50;;;5.00;;
2053;SDS011;1032;52.542;13.440;2023-04-25T05:18:33;8.30;;;4.83;;
2053;SDS011;1032;52.542;13.440;2023-04-25T05:21:20;9.00;;;4.87;;
2053;SDS011;1032;52.542;13.440;2023-04-25T05:24:02;10.73;;;4.87;;
2053;SDS011;1032;52.542;13.440;2023-04-25T05:27:05;9.30;;;5.10;;
2053;SDS011;1032;52.542;13.440;2023-04-25T05:29:48;8.73;;;4.83;;
2053;SDS011;1032;52.542;13.440;2023-04-25T05:32:25;10.17;;;5.77;;
2053;SDS011;1032;52.542;13.440;2023-04-25T05:34:53;10.87;;;4.63;;
2053;SDS011;1032;52.542;13.440;2023-04-25T05:37:26;7.93;;;5.10;;
2053;SDS011;1032;52.542;13.440;2023-04-25T05:40:03;11.27;;;4.90;;
2053;SDS011;1032;52.542;13.440;2023-04-25T05:43:04;11.43;;;4.73;;
2053;SDS011;1032;52.542;13.440;2023-04-25T05:45:46;7.63;;;4.70;;
2053;SDS011;1032;52.542;13.440;2023-04-25T05:48:45;11.30;;;5.80;;
2053;SDS011;1032;52.542;13.440;2023-04-25T05:51:36;6.93;;;5.13;;
2053;SDS011;1032;52.542;13.440;2023-04-25T05:54:17;8.50;;;5.10;;
2053;SDS011;1032;52.542;13.440;2023-04-25T05:56:44;13.50;;;6.07;;
2053;SDS011;1032;52.542;13.440;2023-04-25T05:59:10;9.23;;;5.43;;
2053;SDS011;1032;52.542;13.440;2023-04-25T06:01:37;10.47;;;5.80;;
2053;SDS011;1032;52.542;13.440;2023-04-25T06:04:06;13.53;;;5.67;;
2053;SDS011;1032;52.542;13.440;2023-04-25T06:06:33;14.97;;;6.43;;
2053;SDS011;1032;52.542;13.440;2023-04-25T06:09:00;11.77;;;6.57;;
2053;SDS011;1032;52.542;13.440;2023-04-25T06:11:26;11.37;;;5.60;;
2053;SDS011;1032;52.542;13.440;2023-04-25T06:13:53;14.37;;;5.70;;
2053;SDS011;1032;52.542;13.440;2023-04-25T06:16:19;10.00;;;5.80;;
2053;SDS011;1032;52.542;13.440;2023-04-25T06:18:46;9.60;;;6.27;;
2053;SDS011;1032;52.542;13.440;2023-04-25T06:21:15;8.40;;;6.30;;
2053;SDS011;1032;52.542;13.440;2023-04-25T06:23:41;25.53;;;9.03;;
2053;SDS011;1032;52.542;13.440;2023-04-25T06:26:11;14.13;;;6.67;;
2053;SDS011;1032;52.542;13.440;2023-04-25T06:28:41;17.33;;;7.10;;
2053;SDS011;1032;52.542;13.440;2023-04-25T06:31:08;12.80;;;6.67;;
2053;SDS011;1032;52.542;13.440;2023-04-25T06:33:35;11.53;;;7.80;;
2053;SDS011;1032;52.542;13.440;2023-04-25T06:36:02;17.70;;;7.70;;
2053;SDS011;1032;52.542;13.440;2023-04-25T06:38:31;13.77;;;5.80;;
2053;SDS011;1032;52.542;13.440;2023-04-25T06:41:00;11.00;;;6.10;;
2053;SDS011;1032;52.542;13.440;2023-04-25T06:43:30;13.60;;;7.43;;
2053;SDS011;1032;52.542;13.440;2023-04-25T06:46:22;9.10;;;6.70;;
2053;SDS011;1032;52.542;13.440;2023-04-25T06:48:49;16.87;;;7.70;;
2053;SDS011;1032;52.542;13.440;2023-04-25T06:51:17;9.23;;;5.53;;
2053;SDS011;1032;52.542;13.440;2023-04-25T06:53:46;8.20;;;6.00;;
2053;SDS011;1032;52.542;13.440;2023-04-25T06:56:24;8.57;;;5.20;;
2053;SDS011;1032;52.542;13.440;2023-04-25T06:58:59;11.40;;;6.40;;
2053;SDS011;1032;52.542;13.440;2023-04-25T07:01:31;13.33;;;6.50;;
2053;SDS011;1032;52.542;13.440;2023-04-25T07:04:00;8.40;;;5.30;;
2053;SDS011;1032;52.542;13.440;2023-04-25T07:06:29;15.00;;;6.50;;
2053;SDS011;1032;52.542;13.440;2023-04-25T07:08:57;10.63;;;5.07;;
2053;SDS011;1032;52.542;13.440;2023-04-25T07:11:24;9.63;;;6.10;;
2053;SDS011;1032;52.542;13.440;2023-04-25T07:13:50;11.43;;;5.20;;
2053;SDS011;1032;52.542;13.440;2023-04-25T07:16:17;12.17;;;5.63;;
2053;SDS011;1032;52.542;13.440;2023-04-25T07:18:45;10.77;;;5.20;;
2053;SDS011;1032;52.542;13.440;2023-04-25T07:21:12;9.47;;;6.00;;
2053;SDS011;1032;52.542;13.440;2023-04-25T07:23:41;10.40;;;6.13;;
2053;SDS011;1032;52.542;13.440;2023-04-25T07:26:14;12.50;;;6.30;;
2053;SDS011;1032;52.542;13.440;2023-04-25T07:29:00;9.10;;;5.80;;
2053;SDS011;1032;52.542;13.440;2023-04-25T07:31:27;7.67;;;5.57;;
2053;SDS011;1032;52.542;13.440;2023-04-25T07:33:54;9.20;;;6.20;;
2053;SDS011;1032;52.542;13.440;2023-04-25T07:36:20;8.53;;;4.57;;
2053;SDS011;1032;52.542;13.440;2023-04-25T07:38:47;12.60;;;5.20;;
2053;SDS011;1032;52.542;13.440;2023-04-25T07:41:15;16.67;;;5.10;;
2053;SDS011;1032;52.542;13.440;2023-04-25T07:43:41;11.63;;;5.60;;
2053;SDS011;1032;52.542;13.440;2023-04-25T07:46:08;14.20;;;6.40;;
2053;SDS011;1032;52.542;13.440;2023-04-25T07:48:36;8.30;;;4.90;;
2053;SDS011;1032;52.542;13.440;2023-04-25T07:51:03;10.83;;;5.00;;
2053;SDS011;1032;52.542;13.440;2023-04-25T07:53:30;13.33;;;5.40;;
2053;SDS011;1032;52.542;13.440;2023-04-25T07:56:02;14.33;;;5.03;;
2053;SDS011;1032;52.542;13.440;2023-04-25T07:58:33;10.20;;;4.80;;
2053;SDS011;1032;52.542;13.440;2023-04-25T08:01:02;18.80;;;5.97;;
2053;SDS011;1032;52.542;13.440;2023-04-25T08:03:52;11.27;;;4.40;;
2053;SDS011;1032;52.542;13.440;2023-04-25T08:06:23;18.70;;;5.97;;
2053;SDS011;1032;52.542;13.440;2023-04-25T08:09:09;12.70;;;5.30;;
2053;SDS011;1032;52.542;13.440;2023-04-25T08:11:38;14.07;;;5.03;;
2053;SDS011;1032;52.542;13.440;2023-04-25T08:14:08;18.90;;;5.90;;
2053;SDS011;1032;52.542;13.440;2023-04-25T08:16:36;15.63;;;6.53;;
2053;SDS011;1032;52.542;13.440;2023-04-25T08:19:03;13.87;;;5.50;;
2053;SDS011;1032;52.542;13.440;2023-04-25T08:21:30;11.80;;;5.43;;
2053;SDS011;1032;52.542;13.440;2023-04-25T08:24:00;14.30;;;4.50;;
2053;SDS011;1032;52.542;13.440;2023-04-25T08:26:31;20.33;;;5.57;;
2053;SDS011;1032;52.542;13.440;2023-04-25T08:28:58;13.70;;;4.40;;
2053;SDS011;1032;52.542;13.440;2023-04-25T08:31:26;15.33;;;5.20;;
2053;SDS011;1032;52.542;13.440;2023-04-25T08:33:57;13.23;;;5.00;;
2053;SDS011;1032;52.542;13.440;2023-04-25T08:36:37;15.00;;;5.30;;
2053;SDS011;1032;52.542;13.440;2023-04-25T08:39:12;10.87;;;4.73;;
2053;SDS011;1032;52.542;13.440;2023-04-25T08:41:47;15.57;;;5.07;;
2053;SDS011;1032;52.542;13.440;2023-04-25T08:44:14;13.00;;;4.53;;
2053;SDS011;1032;52.542;13.440;2023-04-25T08:46:43;20.30;;;5.47;;
2053;SDS011;1032;52.542;13.440;2023-04-25T08:49:23;14.10;;;4.87;;
2053;SDS011;1032;52.542;13.440;2023-04-25T08:51:51;16.50;;;6.60;;
2053;SDS011;1032;52.542;13.440;2023-04-25T08:54:21;16.80;;;4.87;;
2053;SDS011;1032;52.542;13.440;2023-04-25T08:56:52;21.17;;;6.03;;
2053;SDS011;1032;52.542;13.440;2023-04-25T08:59:21;15.03;;;5.60;;
2053;SDS011;1032;52.542;13.440;2023-04-25T09:01:50;15.63;;;4.93;;
2053;SDS011;1032;52.542;13.440;2023-04-25T09:04:21;15.20;;;5.03;;
2053;SDS011;1032;52.542;13.440;2023-04-25T09:06:48;14.53;;;4.00;;
2053;SDS011;1032;52.542;13.440;2023-04-25T09:09:15;10.90;;;4.27;;
2053;SDS011;1032;52.542;13.440;2023-04-25T09:11:43;14.07;;;3.90;;
2053;SDS011;1032;52.542;13.440;2023-04-25T09:14:12;13.13;;;3.90;;
2053;SDS011;1032;52.542;13.440;2023-04-25T09:16:59;14.73;;;3.90;;
2053;SDS011;1032;52.542;13.440;2023-04-25T09:19:37;12.93;;;4.37;;
2053;SDS011;1032;52.542;13.440;2023-04-25T09:22:08;11.17;;;3.80;;
2053;SDS011;1032;52.542;13.440;2023-04-25T09:24:36;11.13;;;4.93;;
2053;SDS011;1032;52.542;13.440;2023-04-25T09:27:04;11.17;;;3.70;;
2053;SDS011;1032;52.542;13.440;2023-04-25T09:29:32;7.50;;;3.80;;
2053;SDS011;1032;52.542;13.440;2023-04-25T09:32:14;13.87;;;4.53;;
2053;SDS011;1032;52.542;13.440;2023-04-25T09:34:44;13.43;;;3.60;;
2053;SDS011;1032;52.542;13.440;2023-04-25T09:37:18;13.70;;;4.27;;
2053;SDS011;1032;52.542;13.440;2023-04-25T09:40:05;10.83;;;2.97;;
2053;SDS011;1032;52.542;13.440;2023-04-25T09:42:41;7.70;;;3.83;;
2053;SDS011;1032;52.542;13.440;2023-04-25T09:45:08;9.73;;;4.03;;
2053;SDS011;1032;52.542;13.440;2023-04-25T09:47:41;7.93;;;3.27;;
2053;SDS011;1032;52.542;13.440;2023-04-25T09:50:13;7.10;;;3.20;;
2053;SDS011;1032;52.542;13.440;2023-04-25T09:52:43;10.87;;;3.13;;
2053;SDS011;1032;52.542;13.440;2023-04-25T09:55:15;7.13;;;2.60;;
2053;SDS011;1032;52.542;13.440;2023-04-25T09:57:43;13.20;;;3.10;;
2053;SDS011;1032;52.542;13.440;2023-04-25T10:00:16;9.00;;;2.80;;
2053;SDS011;1032;52.542;13.440;2023-04-25T10:02:46;12.00;;;4.30;;
2053;SDS011;1032;52.542;13.440;2023-04-25T10:05:40;7.80;;;3.47;;
2053;SDS011;1032;52.542;13.440;2023-04-25T10:08:09;10.80;;;4.03;;
2053;SDS011;1032;52.542;13.440;2023-04-25T10:10:38;12.10;;;3.90;;
2053;SDS011;1032;52.542;13.440;2023-04-25T10:13:06;7.47;;;3.50;;
2053;SDS011;1032;52.542;13.440;2023-04-25T10:15:34;12.57;;;3.80;;
2053;SDS011;1032;52.542;13.440;2023-04-25T10:18:03;12.73;;;3.73;;
2053;SDS011;1032;52.542;13.440;2023-04-25T10:20:30;14.77;;;7.40;;
2053;SDS011;1032;52.542;13.440;2023-04-25T10:22:58;9.37;;;3.30;;
2053;SDS011;1032;52.542;13.440;2023-04-25T10:25:33;8.53;;;3.50;;
2053;SDS011;1032;52.542;13.440;2023-04-25T10:28:00;7.90;;;3.13;;
2053;SDS011;1032;52.542;13.440;2023-04-25T10:30:29;9.53;;;3.60;;
2053;SDS011;1032;52.542;13.440;2023-04-25T10:32:56;10.90;;;3.90;;
2053;SDS011;1032;52.542;13.440;2023-04-25T10:35:27;9.60;;;3.10;;
2053;SDS011;1032;52.542;13.440;2023-04-25T10:37:58;8.47;;;3.67;;
2053;SDS011;1032;52.542;13.440;2023-04-25T10:40:28;9.43;;;3.43;;
2053;SDS011;1032;52.542;13.440;2023-04-25T10:42:55;8.43;;;3.10;;
2053;SDS011;1032;52.542;13.440;2023-04-25T10:45:52;8.70;;;3.17;;
2053;SDS011;1032;52.542;13.440;2023-04-25T10:48:24;9.10;;;3.10;;
2053;SDS011;1032;52.542;13.440;2023-04-25T10:50:53;12.30;;;3.73;;
2053;SDS011;1032;52.542;13.440;2023-04-25T10:53:33;8.50;;;3.93;;
2053;SDS011;1032;52.542;13.440;2023-04-25T10:56:00;10.47;;;4.53;;
2053;SDS011;1032;52.542;13.440;2023-04-25T10:58:29;5.70;;;2.93;;
2053;SDS011;1032;52.542;13.440;2023-04-25T11:00:57;9.20;;;2.93;;
2053;SDS011;1032;52.542;13.440;2023-04-25T11:03:24;9.97;;;5.37;;
2053;SDS011;1032;52.542;13.440;2023-04-25T11:05:50;10.00;;;4.50;;
2053;SDS011;1032;52.542;13.440;2023-04-25T11:08:18;10.00;;;3.57;;
2053;SDS011;1032;52.542;13.440;2023-04-25T11:10:58;9.20;;;3.57;;
2053;SDS011;1032;52.542;13.440;2023-04-25T11:13:28;5.97;;;2.90;;
2053;SDS011;1032;52.542;13.440;2023-04-25T11:15:55;10.27;;;3.30;;
2053;SDS011;1032;52.542;13.440;2023-04-25T11:18:26;6.78;;;3.17;;
2053;SDS011;1032;52.542;13.440;2023-04-25T11:20:53;7.70;;;3.00;;
2053;SDS011;1032;52.542;13.440;2023-04-25T11:23:20;8.00;;;2.80;;
2053;SDS011;1032;52.542;13.440;2023-04-25T11:25:47;7.97;;;3.47;;
2053;SDS011;1032;52.542;13.440;2023-04-25T11:28:20;14.33;;;3.70;;
2053;SDS011;1032;52.542;13.440;2023-04-25T11:30:47;11.30;;;3.30;;
2053;SDS011;1032;52.542;13.440;2023-04-25T11:33:15;15.47;;;4.10;;
2053;SDS011;1032;52.542;13.440;2023-04-25T11:35:43;18.70;;;3.70;;
2053;SDS011;1032;52.542;13.440;2023-04-25T11:38:10;9.00;;;2.90;;
2053;SDS011;1032;52.542;13.440;2023-04-25T11:40:36;7.83;;;3.00;;
2053;SDS011;1032;52.542;13.440;2023-04-25T11:43:03;7.30;;;2.77;;
2053;SDS011;1032;52.542;13.440;2023-04-25T11:45:29;7.37;;;2.80;;
2053;SDS011;1032;52.542;13.440;2023-04-25T11:47:56;6.43;;;3.00;;
2053;SDS011;1032;52.542;13.440;2023-04-25T11:50:23;9.00;;;2.80;;
2053;SDS011;1032;52.542;13.440;2023-04-25T11:52:51;15.47;;;3.67;;
2053;SDS011;1032;52.542;13.440;2023-04-25T11:55:23;5.13;;;2.37;;
2053;SDS011;1032;52.542;13.440;2023-04-25T11:57:49;9.00;;;2.60;;
2053;SDS011;1032;52.542;13.440;2023-04-25T12:00:17;11.50;;;3.77;;
2053;SDS011;1032;52.542;13.440;2023-04-25T12:02:46;8.93;;;2.70;;
2053;SDS011;1032;52.542;13.440;2023-04-25T12:05:14;10.30;;;3.17;;
2053;SDS011;1032;52.542;13.440;2023-04-25T12:07:41;9.87;;;2.50;;
2053;SDS011;1032;52.542;13.440;2023-04-25T12:10:10;10.50;;;4.97;;
2053;SDS011;1032;52.542;13.440;2023-04-25T12:12:38;9.43;;;3.60;;
2053;SDS011;1032;52.542;13.440;2023-04-25T12:15:08;10.47;;;3.90;;
2053;SDS011;1032;52.542;13.440;2023-04-25T12:17:36;7.40;;;2.53;;
2053;SDS011;1032;52.542;13.440;2023-04-25T12:20:05;5.63;;;2.60;;
2053;SDS011;1032;52.542;13.440;2023-04-25T12:22:34;12.47;;;3.20;;
2053;SDS011;1032;52.542;13.440;2023-04-25T12:25:01;7.17;;;2.40;;
2053;SDS011;1032;52.542;13.440;2023-04-25T12:27:30;23.40;;;3.60;;
2053;SDS011;1032;52.542;13.440;2023-04-25T12:29:57;5.87;;;2.50;;
2053;SDS011;1032;52.542;13.440;2023-04-25T12:32:24;6.77;;;2.60;;
2053;SDS011;1032;52.542;13.440;2023-04-25T12:34:51;6.33;;;2.33;;
2053;SDS011;1032;52.542;13.440;2023-04-25T12:37:18;8.67;;;3.13;;
2053;SDS011;1032;52.542;13.440;2023-04-25T12:39:45;11.83;;;3.90;;
2053;SDS011;1032;52.542;13.440;2023-04-25T12:42:12;4.90;;;2.53;;
2053;SDS011;1032;52.542;13.440;2023-04-25T12:44:40;7.00;;;4.40;;
2053;SDS011;1032;52.542;13.440;2023-04-25T12:47:06;6.20;;;2.43;;
2053;SDS011;1032;52.542;13.440;2023-04-25T12:49:33;8.60;;;2.80;;
2053;SDS011;1032;52.542;13.440;2023-04-25T12:52:00;6.40;;;2.73;;
2053;SDS011;1032;52.542;13.440;2023-04-25T12:54:26;9.47;;;3.53;;
2053;SDS011;1032;52.542;13.440;2023-04-25T12:56:53;6.90;;;2.03;;
2053;SDS011;1032;52.542;13.440;2023-04-25T12:59:20;8.00;;;2.63;;
2053;SDS011;1032;52.542;13.440;2023-04-25T13:01:48;10.40;;;4.50;;
2053;SDS011;1032;52.542;13.440;2023-04-25T13:04:14;5.37;;;2.27;;
2053;SDS011;1032;52.542;13.440;2023-04-25T13:06:41;6.07;;;2.50;;
2053;SDS011;1032;52.542;13.440;2023-04-25T13:09:08;5.90;;;3.07;;
2053;SDS011;1032;52.542;13.440;2023-04-25T13:11:37;10.07;;;3.03;;
2053;SDS011;1032;52.542;13.440;2023-04-25T13:14:04;7.33;;;2.40;;
2053;SDS011;1032;52.542;13.440;2023-04-25T13:16:31;4.17;;;2.03;;
2053;SDS011;1032;52.542;13.440;2023-04-25T13:18:59;8.83;;;2.30;;
2053;SDS011;1032;52.542;13.440;2023-04-25T13:21:26;7.33;;;2.50;;
2053;SDS011;1032;52.542;13.440;2023-04-25T13:23:53;8.90;;;2.83;;
2053;SDS011;1032;52.542;13.440;2023-04-25T13:26:19;8.40;;;3.60;;
2053;SDS011;1032;52.542;13.440;2023-04-25T13:28:46;5.50;;;2.03;;
2053;SDS011;1032;52.542;13.440;2023-04-25T13:31:13;5.07;;;2.37;;
2053;SDS011;1032;52.542;13.440;2023-04-25T13:33:39;9.50;;;2.40;;
2053;SDS011;1032;52.542;13.440;2023-04-25T13:36:07;6.03;;;2.43;;
2053;SDS011;1032;52.542;13.440;2023-04-25T13:38:35;6.90;;;2.43;;
2053;SDS011;1032;52.542;13.440;2023-04-25T13:41:01;6.17;;;2.43;;
2053;SDS011;1032;52.542;13.440;2023-04-25T13:43:28;6.50;;;2.50;;
2053;SDS011;1032;52.542;13.440;2023-04-25T13:45:55;6.50;;;2.50;;
2053;SDS011;1032;52.542;13.440;2023-04-25T13:48:21;5.17;;;3.07;;
2053;SDS011;1032;52.542;13.440;2023-04-25T13:50:48;9.23;;;2.50;;
2053;SDS011;1032;52.542;13.440;2023-04-25T13:53:17;9.07;;;2.10;;
2053;SDS011;1032;52.542;13.440;2023-04-25T13:55:43;5.83;;;2.20;;
2053;SDS011;1032;52.542;13.440;2023-04-25T13:58:10;4.00;;;2.40;;
2053;SDS011;1032;52.542;13.440;2023-04-25T14:00:37;7.17;;;3.40;;
2053;SDS011;1032;52.542;13.440;2023-04-25T14:03:05;5.90;;;2.07;;
2053;SDS011;1032;52.542;13.440;2023-04-25T14:05:33;4.03;;;2.70;;
2053;SDS011;1032;52.542;13.440;2023-04-25T14:08:03;11.17;;;2.80;;
2053;SDS011;1032;52.542;13.440;2023-04-25T14:10:35;6.97;;;3.10;;
2053;SDS011;1032;52.542;13.440;2023-04-25T14:13:02;4.60;;;2.30;;
2053;SDS011;1032;52.542;13.440;2023-04-25T14:15:29;7.07;;;2.60;;
2053;SDS011;1032;52.542;13.440;2023-04-25T14:17:57;7.97;;;2.53;;
2053;SDS011;1032;52.542;13.440;2023-04-25T14:20:23;7.43;;;2.50;;
2053;SDS011;1032;52.542;13.440;2023-04-25T14:22:50;13.70;;;3.70;;
2053;SDS011;1032;52.542;13.440;2023-04-25T14:25:18;9.37;;;3.10;;
2053;SDS011;1032;52.542;13.440;2023-04-25T14:27:46;9.63;;;3.10;;
2053;SDS011;1032;52.542;13.440;2023-04-25T14:30:15;7.53;;;2.97;;
2053;SDS011;1032;52.542;13.440;2023-04-25T14:32:42;5.60;;;2.47;;
2053;SDS011;1032;52.542;13.440;2023-04-25T14:35:09;9.53;;;2.87;;
2053;SDS011;1032;52.542;13.440;2023-04-25T14:37:36;7.27;;;2.03;;
2053;SDS011;1032;52.542;13.440;2023-04-25T14:40:03;6.33;;;2.20;;
2053;SDS011;1032;52.542;13.440;2023-04-25T14:42:32;8.50;;;2.97;;
2053;SDS011;1032;52.542;13.440;2023-04-25T14:45:00;8.80;;;2.87;;
2053;SDS011;1032;52.542;13.440;2023-04-25T14:47:27;6.47;;;2.63;;
2053;SDS011;1032;52.542;13.440;2023-04-25T14:49:54;11.57;;;3.53;;
2053;SDS011;1032;52.542;13.440;2023-04-25T14:52:20;6.43;;;2.57;;
2053;SDS011;1032;52.542;13.440;2023-04-25T14:54:47;6.33;;;2.73;;
2053;SDS011;1032;52.542;13.440;2023-04-25T14:57:14;9.50;;;2.63;;
2053;SDS011;1032;52.542;13.440;2023-04-25T14:59:41;7.40;;;2.90;;
2053;SDS011;1032;52.542;13.440;2023-04-25T15:02:09;6.33;;;3.10;;
2053;SDS011;1032;52.542;13.440;2023-04-25T15:04:36;5.00;;;2.70;;
2053;SDS011;1032;52.542;13.440;2023-04-25T15:07:03;6.80;;;2.33;;
2053;SDS011;1032;52.542;13.440;2023-04-25T15:09:30;7.00;;;2.07;;
2053;SDS011;1032;52.542;13.440;2023-04-25T15:11:56;6.30;;;2.40;;
2053;SDS011;1032;52.542;13.440;2023-04-25T15:14:24;9.10;;;2.57;;
2053;SDS011;1032;52.542;13.440;2023-04-25T15:16:50;4.90;;;1.90;;